sensor_id;sensor_type;location;lat;lon;timestamp;pressure;altitude;pressure_sealevel;temperature;humidity
4167;BME280;2097;51.104;7.150;2022-07-05T00:01:20;99293.09;;;15.18;69.46
4167;BME280;2097;51.104;7.150;2022-07-05T00:03:47;99296.84;;;15.14;69.32
4167;BME280;2097;51.104;7.150;2022-07-05T00:06:14;99300.47;;;15.12;69.50
4167;BME280;2097;51.104;7.150;2022-07-05T00:08:40;99299.97;;;15.07;69.81
4167;BME280;2097;51.104;7.150;2022-07-05T00:11:08;99294.44;;;14.99;70.04
4167;BME280;2097;51.104;7.150;2022-07-05T00:13:35;99298.06;;;14.96;70.41
4167;BME280;2097;51.104;7.150;2022-07-05T00:16:02;99301.63;;;14.95;70.47
4167;BME280;2097;51.104;7.150;2022-07-05T00:18:29;99299.13;;;14.94;70.69
4167;BME280;2097;51.104;7.150;2022-07-05T00:20:56;99301.84;;;14.92;70.43
4167;BME280;2097;51.104;7.150;2022-07-05T00:23:22;99300.28;;;14.90;70.78
4167;BME280;2097;51.104;7.150;2022-07-05T00:25:49;99304.88;;;14.86;71.16
4167;BME280;2097;51.104;7.150;2022-07-05T00:28:17;99299.41;;;14.77;71.27
4167;BME280;2097;51.104;7.150;2022-07-05T00:30:44;99298.75;;;14.61;71.60
4167;BME280;2097;51.104;7.150;2022-07-05T00:33:11;99319.53;;;14.63;72.13
4167;BME280;2097;51.104;7.150;2022-07-05T00:35:38;99320.69;;;14.59;72.01
4167;BME280;2097;51.104;7.150;2022-07-05T00:38:05;99315.88;;;14.53;72.64
4167;BME280;2097;51.104;7.150;2022-07-05T00:40:32;99317.00;;;14.49;72.67
4167;BME280;2097;51.104;7.150;2022-07-05T00:42:59;99319.81;;;14.46;73.08
4167;BME280;2097;51.104;7.150;2022-07-05T00:45:27;99320.03;;;14.43;72.98
4167;BME280;2097;51.104;7.150;2022-07-05T00:47:54;99316.66;;;14.41;73.37
4167;BME280;2097;51.104;7.150;2022-07-05T00:50:20;99314.13;;;14.39;73.73
4167;BME280;2097;51.104;7.150;2022-07-05T00:52:47;99322.19;;;14.36;73.80
4167;BME280;2097;51.104;7.150;2022-07-05T00:55:15;99317.16;;;14.33;73.70
4167;BME280;2097;51.104;7.150;2022-07-05T00:57:42;99309.53;;;14.30;74.02
4167;BME280;2097;51.104;7.150;2022-07-05T01:00:09;99312.22;;;14.29;74.25
4167;BME280;2097;51.104;7.150;2022-07-05T01:02:38;99319.44;;;14.25;74.48
4167;BME280;2097;51.104;7.150;2022-07-05T01:05:05;99315.22;;;14.23;74.66
4167;BME280;2097;51.104;7.150;2022-07-05T01:07:32;99315.44;;;14.20;74.63
4167;BME280;2097;51.104;7.150;2022-07-05T01:09:58;99313.03;;;14.17;75.27
4167;BME280;2097;51.104;7.150;2022-07-05T01:12:25;99316.56;;;14.16;74.93
4167;BME280;2097;51.104;7.150;2022-07-05T01:14:52;99318.44;;;14.14;75.22
4167;BME280;2097;51.104;7.150;2022-07-05T01:17:20;99300.78;;;14.03;75.34
4167;BME280;2097;51.104;7.150;2022-07-05T01:19:49;99312.53;;;14.10;75.81
4167;BME280;2097;51.104;7.150;2022-07-05T01:22:18;99315.13;;;14.10;75.62
4167;BME280;2097;51.104;7.150;2022-07-05T01:24:48;99312.72;;;14.07;75.83
4167;BME280;2097;51.104;7.150;2022-07-05T01:27:16;99316.25;;;14.06;76.02
4167;BME280;2097;51.104;7.150;2022-07-05T01:29:43;99309.56;;;14.02;75.92
4167;BME280;2097;51.104;7.150;2022-07-05T01:32:10;99321.03;;;14.00;75.91
4167;BME280;2097;51.104;7.150;2022-07-05T01:34:37;99316.00;;;13.97;76.28
4167;BME280;2097;51.104;7.150;2022-07-05T01:37:05;99317.69;;;13.98;76.54
4167;BME280;2097;51.104;7.150;2022-07-05T01:39:33;99321.97;;;13.99;76.27
4167;BME280;2097;51.104;7.150;2022-07-05T01:42:02;99315.19;;;13.96;76.64
4167;BME280;2097;51.104;7.150;2022-07-05T01:44:30;99320.59;;;13.93;76.74
4167;BME280;2097;51.104;7.150;2022-07-05T01:47:06;99322.53;;;13.90;76.81
4167;BME280;2097;51.104;7.150;2022-07-05T01:49:36;99320.88;;;13.89;76.55
4167;BME280;2097;51.104;7.150;2022-07-05T01:52:08;99306.56;;;13.82;76.86
4167;BME280;2097;51.104;7.150;2022-07-05T01:54:35;99320.59;;;13.93;77.07
4167;BME280;2097;51.104;7.150;2022-07-05T01:57:05;99325.72;;;13.95;77.23
4167;BME280;2097;51.104;7.150;2022-07-05T01:59:33;99321.41;;;13.94;77.15
4167;BME280;2097;51.104;7.150;2022-07-05T02:02:00;99324.16;;;13.92;76.77
4167;BME280;2097;51.104;7.150;2022-07-05T02:04:28;99325.91;;;13.92;77.15
4167;BME280;2097;51.104;7.150;2022-07-05T02:06:56;99319.00;;;13.91;76.90
4167;BME280;2097;51.104;7.150;2022-07-05T02:09:23;99324.34;;;13.89;77.39
4167;BME280;2097;51.104;7.150;2022-07-05T02:11:50;99327.88;;;13.88;77.29
4167;BME280;2097;51.104;7.150;2022-07-05T02:14:18;99324.59;;;13.85;77.67
4167;BME280;2097;51.104;7.150;2022-07-05T02:16:45;99327.31;;;13.83;77.39
4167;BME280;2097;51.104;7.150;2022-07-05T02:19:12;99327.44;;;13.82;77.80
4167;BME280;2097;51.104;7.150;2022-07-05T02:21:39;99325.53;;;13.84;77.66
4167;BME280;2097;51.104;7.150;2022-07-05T02:24:06;99327.00;;;13.88;77.84
4167;BME280;2097;51.104;7.150;2022-07-05T02:26:33;99324.78;;;13.96;77.37
4167;BME280;2097;51.104;7.150;2022-07-05T02:29:00;99329.97;;;14.10;77.48
4167;BME280;2097;51.104;7.150;2022-07-05T02:31:29;99327.34;;;14.24;76.93
4167;BME280;2097;51.104;7.150;2022-07-05T02:33:56;99325.63;;;14.37;76.67
4167;BME280;2097;51.104;7.150;2022-07-05T02:36:24;99336.50;;;14.43;76.80
4167;BME280;2097;51.104;7.150;2022-07-05T02:38:51;99332.88;;;14.46;76.46
4167;BME280;2097;51.104;7.150;2022-07-05T02:41:18;99333.81;;;14.45;76.47
4167;BME280;2097;51.104;7.150;2022-07-05T02:43:45;99331.94;;;14.47;76.63
4167;BME280;2097;51.104;7.150;2022-07-05T02:46:11;99329.22;;;14.48;76.81
4167;BME280;2097;51.104;7.150;2022-07-05T02:48:40;99325.47;;;14.52;76.93
4167;BME280;2097;51.104;7.150;2022-07-05T02:51:06;99320.91;;;14.56;76.50
4167;BME280;2097;51.104;7.150;2022-07-05T02:53:33;99330.50;;;14.55;76.48
4167;BME280;2097;51.104;7.150;2022-07-05T02:56:00;99080.97;;;13.08;76.67
4167;BME280;2097;51.104;7.150;2022-07-05T02:58:27;99330.91;;;14.49;76.40
4167;BME280;2097;51.104;7.150;2022-07-05T03:00:54;99328.41;;;14.48;76.86
4167;BME280;2097;51.104;7.150;2022-07-05T03:03:21;99318.66;;;14.37;76.99
4167;BME280;2097;51.104;7.150;2022-07-05T03:05:49;99324.50;;;14.41;76.93
4167;BME280;2097;51.104;7.150;2022-07-05T03:08:16;99335.03;;;14.39;76.60
4167;BME280;2097;51.104;7.150;2022-07-05T03:10:43;99344.03;;;14.35;76.73
4167;BME280;2097;51.104;7.150;2022-07-05T03:13:10;99342.44;;;14.33;76.87
4167;BME280;2097;51.104;7.150;2022-07-05T03:15:36;99333.03;;;14.30;77.41
4167;BME280;2097;51.104;7.150;2022-07-05T03:18:04;99229.44;;;13.64;77.38
4167;BME280;2097;51.104;7.150;2022-07-05T03:20:30;99336.66;;;14.28;77.29
4167;BME280;2097;51.104;7.150;2022-07-05T03:22:59;99329.69;;;14.28;77.63
4167;BME280;2097;51.104;7.150;2022-07-05T03:25:25;99332.91;;;14.32;77.20
4167;BME280;2097;51.104;7.150;2022-07-05T03:27:52;99330.22;;;14.33;77.64
4167;BME280;2097;51.104;7.150;2022-07-05T03:30:19;99327.63;;;14.33;77.46
4167;BME280;2097;51.104;7.150;2022-07-05T03:32:46;99331.03;;;14.34;77.09
4167;BME280;2097;51.104;7.150;2022-07-05T03:35:12;99339.44;;;14.39;76.95
4167;BME280;2097;51.104;7.150;2022-07-05T03:37:39;99332.13;;;14.44;77.06
4167;BME280;2097;51.104;7.150;2022-07-05T03:40:08;99308.31;;;14.22;76.98
4167;BME280;2097;51.104;7.150;2022-07-05T03:42:35;99323.16;;;14.48;76.53
4167;BME280;2097;51.104;7.150;2022-07-05T03:45:02;99329.34;;;14.47;76.41
4167;BME280;2097;51.104;7.150;2022-07-05T03:47:29;99333.81;;;14.45;76.45
4167;BME280;2097;51.104;7.150;2022-07-05T03:49:56;99325.03;;;14.46;76.91
4167;BME280;2097;51.104;7.150;2022-07-05T03:52:23;99336.13;;;14.49;76.97
4167;BME280;2097;51.104;7.150;2022-07-05T03:54:49;99334.25;;;14.51;76.80
4167;BME280;2097;51.104;7.150;2022-07-05T03:57:17;99308.28;;;14.36;76.80
4167;BME280;2097;51.104;7.150;2022-07-05T03:59:44;99329.69;;;14.55;76.34
4167;BME280;2097;51.104;7.150;2022-07-05T04:02:11;99328.75;;;14.56;76.37
4167;BME280;2097;51.104;7.150;2022-07-05T04:04:38;99332.59;;;14.63;76.45
4167;BME280;2097;51.104;7.150;2022-07-05T04:07:05;99327.63;;;14.72;76.15
4167;BME280;2097;51.104;7.150;2022-07-05T04:09:32;99322.63;;;14.82;75.99
4167;BME280;2097;51.104;7.150;2022-07-05T04:11:58;99332.50;;;14.90;75.81
4167;BME280;2097;51.104;7.150;2022-07-05T04:14:27;99347.00;;;14.94;75.74
4167;BME280;2097;51.104;7.150;2022-07-05T04:16:53;99353.16;;;14.93;75.40
4167;BME280;2097;51.104;7.150;2022-07-05T04:19:20;99360.69;;;14.85;75.91
4167;BME280;2097;51.104;7.150;2022-07-05T04:21:47;99360.97;;;14.81;75.62
4167;BME280;2097;51.104;7.150;2022-07-05T04:24:14;99368.00;;;14.81;76.17
4167;BME280;2097;51.104;7.150;2022-07-05T04:26:41;99364.88;;;14.88;76.25
4167;BME280;2097;51.104;7.150;2022-07-05T04:29:08;99357.44;;;14.82;76.37
4167;BME280;2097;51.104;7.150;2022-07-05T04:31:36;99375.13;;;14.91;76.50
4167;BME280;2097;51.104;7.150;2022-07-05T04:34:03;99369.31;;;15.00;76.22
4167;BME280;2097;51.104;7.150;2022-07-05T04:36:30;99366.72;;;15.12;76.02
4167;BME280;2097;51.104;7.150;2022-07-05T04:38:56;99372.88;;;15.24;75.88
4167;BME280;2097;51.104;7.150;2022-07-05T04:41:23;99373.13;;;15.33;75.31
4167;BME280;2097;51.104;7.150;2022-07-05T04:43:50;99371.38;;;15.34;75.47
4167;BME280;2097;51.104;7.150;2022-07-05T04:46:17;99375.13;;;15.30;75.50
4167;BME280;2097;51.104;7.150;2022-07-05T04:48:45;99372.81;;;15.25;nan
4167;BME280;2097;51.104;7.150;2022-07-05T04:51:11;99377.38;;;15.22;75.80
4167;BME280;2097;51.104;7.150;2022-07-05T04:53:38;99374.16;;;15.18;76.11
4167;BME280;2097;51.104;7.150;2022-07-05T04:56:05;99379.47;;;15.17;76.24
4167;BME280;2097;51.104;7.150;2022-07-05T04:58:32;99378.72;;;15.15;76.25
4167;BME280;2097;51.104;7.150;2022-07-05T05:00:59;99383.34;;;15.11;76.24
4167;BME280;2097;51.104;7.150;2022-07-05T05:03:26;99385.22;;;15.09;76.21
4167;BME280;2097;51.104;7.150;2022-07-05T05:05:54;99390.56;;;15.08;76.76
4167;BME280;2097;51.104;7.150;2022-07-05T05:08:20;99389.69;;;15.07;76.67
4167;BME280;2097;51.104;7.150;2022-07-05T05:10:47;99379.34;;;15.06;76.88
4167;BME280;2097;51.104;7.150;2022-07-05T05:13:14;99387.75;;;15.11;77.03
4167;BME280;2097;51.104;7.150;2022-07-05T05:15:41;99378.72;;;15.15;76.79
4167;BME280;2097;51.104;7.150;2022-07-05T05:18:07;99382.94;;;15.17;76.75
4167;BME280;2097;51.104;7.150;2022-07-05T05:20:34;99379.91;;;15.23;76.38
4167;BME280;2097;51.104;7.150;2022-07-05T05:23:02;99393.31;;;15.31;76.35
4167;BME280;2097;51.104;7.150;2022-07-05T05:25:29;99393.66;;;15.39;75.92
4167;BME280;2097;51.104;7.150;2022-07-05T05:27:56;99392.91;;;15.50;75.91
4167;BME280;2097;51.104;7.150;2022-07-05T05:30:23;99395.34;;;15.65;75.49
4167;BME280;2097;51.104;7.150;2022-07-05T05:32:50;99397.53;;;15.84;74.88
4167;BME280;2097;51.104;7.150;2022-07-05T05:35:17;99400.13;;;16.08;74.24
4167;BME280;2097;51.104;7.150;2022-07-05T05:37:52;99376.72;;;16.18;73.45
4167;BME280;2097;51.104;7.150;2022-07-05T05:40:21;99403.91;;;16.53;73.00
4167;BME280;2097;51.104;7.150;2022-07-05T05:42:48;99400.19;;;16.68;72.46
4167;BME280;2097;51.104;7.150;2022-07-05T05:45:16;99382.38;;;16.60;72.08
4167;BME280;2097;51.104;7.150;2022-07-05T05:47:47;99388.84;;;16.67;72.21
4167;BME280;2097;51.104;7.150;2022-07-05T05:50:18;99407.13;;;16.80;72.58
4167;BME280;2097;51.104;7.150;2022-07-05T05:52:44;99397.59;;;16.79;72.49
4167;BME280;2097;51.104;7.150;2022-07-05T05:55:11;99406.19;;;16.81;72.44
4167;BME280;2097;51.104;7.150;2022-07-05T05:57:39;99402.41;;;16.85;72.32
4167;BME280;2097;51.104;7.150;2022-07-05T06:00:07;99412.44;;;16.91;72.26
4167;BME280;2097;51.104;7.150;2022-07-05T06:02:35;99415.44;;;16.97;72.21
4167;BME280;2097;51.104;7.150;2022-07-05T06:05:01;99408.06;;;17.02;71.85
4167;BME280;2097;51.104;7.150;2022-07-05T06:07:28;99410.97;;;17.10;71.79
4167;BME280;2097;51.104;7.150;2022-07-05T06:09:55;99406.72;;;17.20;71.50
4167;BME280;2097;51.104;7.150;2022-07-05T06:12:22;99399.44;;;17.23;71.17
4167;BME280;2097;51.104;7.150;2022-07-05T06:14:50;99412.41;;;17.37;70.87
4167;BME280;2097;51.104;7.150;2022-07-05T06:17:17;99416.34;;;17.43;70.65
4167;BME280;2097;51.104;7.150;2022-07-05T06:19:44;99419.25;;;17.51;70.27
4167;BME280;2097;51.104;7.150;2022-07-05T06:22:10;99423.06;;;17.58;70.24
4167;BME280;2097;51.104;7.150;2022-07-05T06:24:37;99372.09;;;17.38;69.78
4167;BME280;2097;51.104;7.150;2022-07-05T06:27:04;99420.84;;;17.75;69.20
4167;BME280;2097;51.104;7.150;2022-07-05T06:29:31;99423.00;;;17.81;68.80
4167;BME280;2097;51.104;7.150;2022-07-05T06:31:59;99420.81;;;17.86;68.47
4167;BME280;2097;51.104;7.150;2022-07-05T06:34:26;99428.38;;;17.91;68.37
4167;BME280;2097;51.104;7.150;2022-07-05T06:36:53;99429.69;;;17.96;68.05
4167;BME280;2097;51.104;7.150;2022-07-05T06:39:23;99432.66;;;18.03;67.70
4167;BME280;2097;51.104;7.150;2022-07-05T06:41:50;99435.78;;;18.08;67.43
4167;BME280;2097;51.104;7.150;2022-07-05T06:44:16;99441.41;;;18.14;67.18
4167;BME280;2097;51.104;7.150;2022-07-05T06:46:43;99441.75;;;18.21;66.57
4167;BME280;2097;51.104;7.150;2022-07-05T06:49:11;99445.34;;;18.20;66.22
4167;BME280;2097;51.104;7.150;2022-07-05T06:51:38;99442.56;;;18.21;66.33
4167;BME280;2097;51.104;7.150;2022-07-05T06:54:05;99452.03;;;18.24;65.93
4167;BME280;2097;51.104;7.150;2022-07-05T06:56:31;99450.00;;;18.27;65.53
4167;BME280;2097;51.104;7.150;2022-07-05T06:58:58;99455.75;;;18.32;65.20
4167;BME280;2097;51.104;7.150;2022-07-05T07:01:25;99459.34;;;18.42;63.66
4167;BME280;2097;51.104;7.150;2022-07-05T07:03:52;99453.47;;;18.49;62.98
4167;BME280;2097;51.104;7.150;2022-07-05T07:06:20;99452.28;;;18.53;62.47
4167;BME280;2097;51.104;7.150;2022-07-05T07:08:47;99453.69;;;18.57;61.68
4167;BME280;2097;51.104;7.150;2022-07-05T07:11:31;99399.03;;;18.30;61.36
4167;BME280;2097;51.104;7.150;2022-07-05T07:13:58;99456.44;;;18.67;60.96
4167;BME280;2097;51.104;7.150;2022-07-05T07:16:25;99456.56;;;18.65;61.16
4167;BME280;2097;51.104;7.150;2022-07-05T07:18:52;99459.78;;;18.69;61.16
4167;BME280;2097;51.104;7.150;2022-07-05T07:21:20;99450.44;;;18.76;61.09
4167;BME280;2097;51.104;7.150;2022-07-05T07:23:46;99460.22;;;18.85;60.91
4167;BME280;2097;51.104;7.150;2022-07-05T07:26:13;99456.00;;;18.93;60.74
4167;BME280;2097;51.104;7.150;2022-07-05T07:28:40;99456.72;;;18.95;60.95
4167;BME280;2097;51.104;7.150;2022-07-05T07:31:07;99457.53;;;18.96;60.94
4167;BME280;2097;51.104;7.150;2022-07-05T07:33:34;99462.56;;;18.99;61.08
4167;BME280;2097;51.104;7.150;2022-07-05T07:36:01;99458.72;;;19.03;60.79
4167;BME280;2097;51.104;7.150;2022-07-05T07:38:29;99458.72;;;19.03;59.97
4167;BME280;2097;51.104;7.150;2022-07-05T07:40:56;99462.56;;;18.99;60.11
4167;BME280;2097;51.104;7.150;2022-07-05T07:43:23;99466.97;;;19.09;60.29
4167;BME280;2097;51.104;7.150;2022-07-05T07:45:49;99475.31;;;19.25;60.32
4167;BME280;2097;51.104;7.150;2022-07-05T07:48:16;99464.59;;;19.38;59.93
4167;BME280;2097;51.104;7.150;2022-07-05T07:50:44;99474.38;;;19.47;59.94
4167;BME280;2097;51.104;7.150;2022-07-05T07:53:10;99475.16;;;19.58;59.61
4167;BME280;2097;51.104;7.150;2022-07-05T07:55:38;99476.72;;;19.60;59.65
4167;BME280;2097;51.104;7.150;2022-07-05T07:58:05;99480.81;;;19.53;59.88
4167;BME280;2097;51.104;7.150;2022-07-05T08:00:32;99481.78;;;19.52;59.79
4167;BME280;2097;51.104;7.150;2022-07-05T08:02:59;99475.66;;;19.72;59.82
4167;BME280;2097;51.104;7.150;2022-07-05T08:05:26;99473.41;;;19.99;58.75
4167;BME280;2097;51.104;7.150;2022-07-05T08:07:52;99479.88;;;20.16;58.34
4167;BME280;2097;51.104;7.150;2022-07-05T08:10:19;99480.34;;;20.30;57.95
4167;BME280;2097;51.104;7.150;2022-07-05T08:12:47;99483.97;;;20.39;58.06
4167;BME280;2097;51.104;7.150;2022-07-05T08:15:14;99480.28;;;20.51;57.73
4167;BME280;2097;51.104;7.150;2022-07-05T08:17:41;99481.63;;;20.45;57.33
4167;BME280;2097;51.104;7.150;2022-07-05T08:20:27;99488.84;;;20.43;57.29
4167;BME280;2097;51.104;7.150;2022-07-05T08:23:26;99484.53;;;20.12;57.75
4167;BME280;2097;51.104;7.150;2022-07-05T08:25:53;99480.38;;;20.10;58.04
4167;BME280;2097;51.104;7.150;2022-07-05T08:28:21;99487.50;;;20.19;57.59
4167;BME280;2097;51.104;7.150;2022-07-05T08:30:49;99476.28;;;20.26;56.96
4167;BME280;2097;51.104;7.150;2022-07-05T08:33:16;99478.41;;;20.32;57.00
4167;BME280;2097;51.104;7.150;2022-07-05T08:35:43;99482.06;;;20.41;56.49
4167;BME280;2097;51.104;7.150;2022-07-05T08:38:10;99488.91;;;20.53;55.15
4167;BME280;2097;51.104;7.150;2022-07-05T08:40:39;99485.44;;;20.62;54.19
4167;BME280;2097;51.104;7.150;2022-07-05T08:43:11;99479.25;;;20.72;53.87
4167;BME280;2097;51.104;7.150;2022-07-05T08:45:42;99485.28;;;20.93;53.75
4167;BME280;2097;51.104;7.150;2022-07-05T08:48:09;99477.41;;;21.12;53.78
4167;BME280;2097;51.104;7.150;2022-07-05T08:50:37;99472.97;;;21.22;53.37
4167;BME280;2097;51.104;7.150;2022-07-05T08:53:06;99477.81;;;21.17;53.32
4167;BME280;2097;51.104;7.150;2022-07-05T08:55:33;99434.78;;;20.77;53.53
4167;BME280;2097;51.104;7.150;2022-07-05T08:58:00;99481.00;;;21.01;53.57
4167;BME280;2097;51.104;7.150;2022-07-05T09:00:27;99477.41;;;21.21;53.43
4167;BME280;2097;51.104;7.150;2022-07-05T09:02:56;99482.03;;;21.48;52.46
4167;BME280;2097;51.104;7.150;2022-07-05T09:05:25;99486.59;;;21.74;51.44
4167;BME280;2097;51.104;7.150;2022-07-05T09:07:55;99485.88;;;22.00;50.49
4167;BME280;2097;51.104;7.150;2022-07-05T09:10:33;99487.09;;;22.15;49.79
4167;BME280;2097;51.104;7.150;2022-07-05T09:13:00;99499.22;;;22.08;50.12
4167;BME280;2097;51.104;7.150;2022-07-05T09:15:27;99497.84;;;21.95;50.11
4167;BME280;2097;51.104;7.150;2022-07-05T09:17:55;99501.47;;;21.75;50.30
4167;BME280;2097;51.104;7.150;2022-07-05T09:20:22;99488.00;;;21.69;50.49
4167;BME280;2097;51.104;7.150;2022-07-05T09:22:50;99489.91;;;21.95;50.46
4167;BME280;2097;51.104;7.150;2022-07-05T09:25:20;99492.41;;;21.96;49.75
4167;BME280;2097;51.104;7.150;2022-07-05T09:27:52;99498.03;;;21.75;49.73
4167;BME280;2097;51.104;7.150;2022-07-05T09:30:28;99496.59;;;21.52;50.17
4167;BME280;2097;51.104;7.150;2022-07-05T09:33:07;99494.66;;;21.35;50.53
4167;BME280;2097;51.104;7.150;2022-07-05T09:35:36;99499.94;;;21.25;50.86
4167;BME280;2097;51.104;7.150;2022-07-05T09:38:03;99494.25;;;21.30;50.54
4167;BME280;2097;51.104;7.150;2022-07-05T09:40:30;99503.28;;;21.56;50.19
4167;BME280;2097;51.104;7.150;2022-07-05T09:43:10;99482.28;;;21.83;49.51
4167;BME280;2097;51.104;7.150;2022-07-05T09:45:38;99499.59;;;22.23;49.02
4167;BME280;2097;51.104;7.150;2022-07-05T09:48:07;99415.31;;;22.01;48.52
4167;BME280;2097;51.104;7.150;2022-07-05T09:50:34;99417.19;;;22.18;48.21
4167;BME280;2097;51.104;7.150;2022-07-05T09:53:02;99508.03;;;22.45;48.15
4167;BME280;2097;51.104;7.150;2022-07-05T09:55:29;99492.88;;;22.28;48.60
4167;BME280;2097;51.104;7.150;2022-07-05T09:57:56;99433.63;;;21.76;48.59
4167;BME280;2097;51.104;7.150;2022-07-05T10:00:23;99493.59;;;22.21;48.64
4167;BME280;2097;51.104;7.150;2022-07-05T10:02:51;99492.59;;;22.31;48.25
4167;BME280;2097;51.104;7.150;2022-07-05T10:05:21;99492.03;;;22.37;48.20
4167;BME280;2097;51.104;7.150;2022-07-05T10:07:50;99485.50;;;22.41;48.03
4167;BME280;2097;51.104;7.150;2022-07-05T10:10:18;99492.56;;;22.50;45.84
4167;BME280;2097;51.104;7.150;2022-07-05T10:12:47;99488.38;;;22.48;46.60
4167;BME280;2097;51.104;7.150;2022-07-05T10:15:17;99488.53;;;22.46;46.81
4167;BME280;2097;51.104;7.150;2022-07-05T10:17:47;99492.91;;;22.38;47.27
4167;BME280;2097;51.104;7.150;2022-07-05T10:20:22;99489.94;;;22.41;47.48
4167;BME280;2097;51.104;7.150;2022-07-05T10:22:51;99503.72;;;22.44;47.39
4167;BME280;2097;51.104;7.150;2022-07-05T10:25:19;99506.09;;;22.47;47.34
4167;BME280;2097;51.104;7.150;2022-07-05T10:27:47;99494.13;;;22.70;46.90
4167;BME280;2097;51.104;7.150;2022-07-05T10:30:15;99493.94;;;23.08;46.23
4167;BME280;2097;51.104;7.150;2022-07-05T10:32:42;99496.91;;;23.22;45.87
4167;BME280;2097;51.104;7.150;2022-07-05T10:35:10;99501.28;;;23.14;45.50
4167;BME280;2097;51.104;7.150;2022-07-05T10:37:38;99504.19;;;22.67;46.49
4167;BME280;2097;51.104;7.150;2022-07-05T10:40:06;99495.66;;;22.36;47.22
4167;BME280;2097;51.104;7.150;2022-07-05T10:42:37;99497.00;;;22.50;47.01
4167;BME280;2097;51.104;7.150;2022-07-05T10:45:27;99501.00;;;22.90;46.57
4167;BME280;2097;51.104;7.150;2022-07-05T10:48:18;99501.75;;;23.10;45.67
4167;BME280;2097;51.104;7.150;2022-07-05T10:50:47;99494.34;;;23.48;43.32
4167;BME280;2097;51.104;7.150;2022-07-05T10:53:20;99493.34;;;23.84;43.61
4167;BME280;2097;51.104;7.150;2022-07-05T10:55:53;99498.34;;;23.87;43.45
4167;BME280;2097;51.104;7.150;2022-07-05T10:58:28;99488.38;;;24.06;43.00
4167;BME280;2097;51.104;7.150;2022-07-05T11:01:31;99493.63;;;24.49;42.80
4167;BME280;2097;51.104;7.150;2022-07-05T11:04:10;99482.69;;;24.52;42.63
4167;BME280;2097;51.104;7.150;2022-07-05T11:06:41;99471.78;;;24.29;42.85
4167;BME280;2097;51.104;7.150;2022-07-05T11:09:17;99497.56;;;23.94;42.99
4167;BME280;2097;51.104;7.150;2022-07-05T11:11:45;99504.78;;;23.67;43.64
4167;BME280;2097;51.104;7.150;2022-07-05T11:14:34;99498.44;;;23.42;43.95
4167;BME280;2097;51.104;7.150;2022-07-05T11:17:13;99493.06;;;23.52;44.01
4167;BME280;2097;51.104;7.150;2022-07-05T11:20:08;99504.41;;;23.62;43.61
4167;BME280;2097;51.104;7.150;2022-07-05T11:22:36;99501.09;;;23.60;44.18
4167;BME280;2097;51.104;7.150;2022-07-05T11:25:06;99495.03;;;23.50;44.12
4167;BME280;2097;51.104;7.150;2022-07-05T11:27:34;99471.09;;;23.42;44.03
4167;BME280;2097;51.104;7.150;2022-07-05T11:30:01;99505.13;;;23.72;43.94
4167;BME280;2097;51.104;7.150;2022-07-05T11:32:36;99496.50;;;23.70;43.42
4167;BME280;2097;51.104;7.150;2022-07-05T11:35:14;99460.22;;;23.70;43.66
4167;BME280;2097;51.104;7.150;2022-07-05T11:37:58;99289.53;;;22.43;42.87
4167;BME280;2097;51.104;7.150;2022-07-05T11:40:29;99491.28;;;23.60;43.96
4167;BME280;2097;51.104;7.150;2022-07-05T11:42:56;99456.22;;;23.84;43.47
4167;BME280;2097;51.104;7.150;2022-07-05T11:50:34;99463.69;;;23.88;43.26
4167;BME280;2097;51.104;7.150;2022-07-05T11:53:01;99480.75;;;23.86;43.45
4167;BME280;2097;51.104;7.150;2022-07-05T11:55:30;99491.91;;;23.54;44.12
4167;BME280;2097;51.104;7.150;2022-07-05T11:57:57;99484.94;;;23.36;44.28
4167;BME280;2097;51.104;7.150;2022-07-05T12:00:32;99477.63;;;23.30;44.38
4167;BME280;2097;51.104;7.150;2022-07-05T12:03:00;99469.53;;;23.05;44.62
4167;BME280;2097;51.104;7.150;2022-07-05T12:05:31;99485.19;;;22.98;45.04
4167;BME280;2097;51.104;7.150;2022-07-05T12:07:58;99479.59;;;23.28;44.83
4167;BME280;2097;51.104;7.150;2022-07-05T12:10:25;99474.16;;;23.90;43.13
4167;BME280;2097;51.104;7.150;2022-07-05T12:13:11;99465.13;;;24.00;43.11
4167;BME280;2097;51.104;7.150;2022-07-05T12:15:39;99470.06;;;23.78;42.90
4167;BME280;2097;51.104;7.150;2022-07-05T12:18:06;99465.31;;;23.64;43.00
4167;BME280;2097;51.104;7.150;2022-07-05T12:20:36;99467.91;;;23.56;42.80
4167;BME280;2097;51.104;7.150;2022-07-05T12:23:04;99461.25;;;23.52;42.57
4167;BME280;2097;51.104;7.150;2022-07-05T12:25:32;99455.84;;;23.79;42.31
4167;BME280;2097;51.104;7.150;2022-07-05T12:28:00;99458.81;;;24.27;41.65
4167;BME280;2097;51.104;7.150;2022-07-05T12:30:30;99458.72;;;24.44;40.68
4167;BME280;2097;51.104;7.150;2022-07-05T12:32:59;99467.47;;;24.62;40.92
4167;BME280;2097;51.104;7.150;2022-07-05T12:35:27;99457.03;;;24.68;40.84
4167;BME280;2097;51.104;7.150;2022-07-05T12:37:54;99468.63;;;24.34;41.27
4167;BME280;2097;51.104;7.150;2022-07-05T12:40:22;99458.38;;;23.88;41.92
4167;BME280;2097;51.104;7.150;2022-07-05T12:43:00;99468.31;;;23.69;42.41
4167;BME280;2097;51.104;7.150;2022-07-05T12:45:27;99467.00;;;23.65;42.82
4167;BME280;2097;51.104;7.150;2022-07-05T12:47:57;99470.78;;;23.80;42.81
4167;BME280;2097;51.104;7.150;2022-07-05T12:50:27;99468.06;;;24.23;41.84
4167;BME280;2097;51.104;7.150;2022-07-05T12:53:02;99462.81;;;24.64;40.93
4167;BME280;2097;51.104;7.150;2022-07-05T12:55:58;99456.19;;;24.68;40.15
4167;BME280;2097;51.104;7.150;2022-07-05T12:58:47;99454.81;;;24.97;40.27
4167;BME280;2097;51.104;7.150;2022-07-05T13:01:22;99452.31;;;25.04;40.34
4167;BME280;2097;51.104;7.150;2022-07-05T13:04:02;99461.22;;;25.36;39.61
4167;BME280;2097;51.104;7.150;2022-07-05T13:06:45;99461.56;;;25.41;39.21
4167;BME280;2097;51.104;7.150;2022-07-05T13:09:14;99463.53;;;25.31;39.55
4167;BME280;2097;51.104;7.150;2022-07-05T13:11:41;99451.53;;;25.19;39.84
4167;BME280;2097;51.104;7.150;2022-07-05T13:14:08;99459.13;;;24.98;39.43
4167;BME280;2097;51.104;7.150;2022-07-05T13:16:35;99466.03;;;24.83;39.65
4167;BME280;2097;51.104;7.150;2022-07-05T13:19:10;99460.63;;;25.09;39.45
4167;BME280;2097;51.104;7.150;2022-07-05T13:21:38;99457.09;;;25.65;38.78
4167;BME280;2097;51.104;7.150;2022-07-05T13:24:06;99460.22;;;26.01;38.34
4167;BME280;2097;51.104;7.150;2022-07-05T13:26:32;99462.00;;;26.24;37.68
4167;BME280;2097;51.104;7.150;2022-07-05T13:28:59;99467.00;;;26.11;37.70
4167;BME280;2097;51.104;7.150;2022-07-05T13:31:26;99464.88;;;25.99;38.31
4167;BME280;2097;51.104;7.150;2022-07-05T13:33:56;99462.41;;;25.89;38.15
4167;BME280;2097;51.104;7.150;2022-07-05T13:36:25;99449.91;;;25.90;38.11